Time;durP1;ratioP1;P1;durP2;ratioP2;P2;SDS_P1;SDS_P2;PMS_P1;PMS_P2;Temp;Humidity;BMP_temperature;BMP_pressure;BME280_temperature;BME280_humidity;BME280_pressure;Samples;Min_cycle;Max_cycle;Signal;HPM_P1;HPM_P2
2023/05/29 00:00:08;;;;;;;;;;;;;;;18.50;34.32;102281.03;7346426;19;20302;-56
2023/05/29 00:02:34;;;;;;;;;;;;;;;18.42;34.27;102274.22;7344734;19;20707;-55
2023/05/29 00:05:02;;;;;;;;;;;;;;;18.35;34.31;102277.97;7355443;19;19935;-56
2023/05/29 00:07:28;;;;;;;;;;;;;;;18.29;34.48;102279.91;7354599;19;20301;-56
2023/05/29 00:09:53;;;;;;;;;;;;;;;18.22;34.86;102287.16;7353151;19;20002;-56
2023/05/29 00:12:19;;;;;;;;;;;;;;;18.15;34.46;102285.63;7357549;19;19923;-55
2023/05/29 00:14:44;;;;;;;;;;;;;;;18.08;34.98;102289.34;7355366;19;19923;-56
2023/05/29 00:17:12;;;;;;;;;;;;;;;18.01;34.73;102287.78;7355665;19;19938;-55
2023/05/29 00:19:37;;;;;;;;;;;;;;;17.93;34.85;102281.84;7352258;19;19957;-56
2023/05/29 00:22:03;;;;;;;;;;;;;;;17.87;35.13;102285.53;7354467;19;19919;-55
2023/05/29 00:24:28;;;;;;;;;;;;;;;17.80;35.15;102281.34;7354627;19;19926;-55
2023/05/29 00:26:53;;;;;;;;;;;;;;;17.72;34.79;102292.06;7356039;19;20323;-56
2023/05/29 00:29:21;;;;;;;;;;;;;;;17.64;35.00;102294.06;7354170;19;19927;-55
2023/05/29 00:31:46;;;;;;;;;;;;;;;17.58;35.15;102289.78;7356538;19;20012;-56
2023/05/29 00:34:11;;;;;;;;;;;;;;;17.51;35.37;102297.94;7352631;19;19998;-55
2023/05/29 00:36:36;;;;;;;;;;;;;;;17.45;35.41;102290.16;7354826;19;19923;-55
2023/05/29 00:39:02;;;;;;;;;;;;;;;17.38;35.26;102298.22;7353716;19;19918;-55
2023/05/29 00:41:27;;;;;;;;;;;;;;;17.33;35.23;102293.97;7353139;19;19918;-55
2023/05/29 00:43:53;;;;;;;;;;;;;;;17.27;35.33;102297.63;7353729;19;19918;-54
2023/05/29 00:46:20;;;;;;;;;;;;;;;17.23;35.37;102293.34;7354607;19;20574;-55
2023/05/29 00:48:45;;;;;;;;;;;;;;;17.19;35.53;102294.34;7355084;19;19933;-56
2023/05/29 00:51:12;;;;;;;;;;;;;;;17.14;35.69;102293.59;7354703;19;20534;-55
2023/05/29 00:53:38;;;;;;;;;;;;;;;17.11;35.72;102298.94;7355434;19;19925;-56
2023/05/29 00:56:04;;;;;;;;;;;;;;;17.07;35.90;102307.81;7351388;19;19915;-55
2023/05/29 00:58:30;;;;;;;;;;;;;;;17.03;35.89;102307.06;7353784;19;19940;-54
2023/05/29 01:00:55;;;;;;;;;;;;;;;16.99;35.96;102309.78;7349453;19;20246;-55
2023/05/29 01:03:22;;;;;;;;;;;;;;;16.96;36.09;102304.56;7350860;19;19926;-54
2023/05/29 01:05:48;;;;;;;;;;;;;;;16.93;36.13;102309.91;7357461;19;19922;-55
2023/05/29 01:08:13;;;;;;;;;;;;;;;16.89;36.27;102308.28;7359899;19;19944;-55
2023/05/29 01:10:38;;;;;;;;;;;;;;;16.84;36.10;102314.53;7360151;19;20014;-55
2023/05/29 01:13:08;;;;;;;;;;;;;;;16.82;36.39;102318.94;7359347;19;20617;-53
2023/05/29 01:15:36;;;;;;;;;;;;;;;16.78;36.48;102312.03;7360521;19;20592;-55
2023/05/29 01:18:17;;;;;;;;;;;;;;;16.75;36.22;102306.81;7359079;19;19933;-55
2023/05/29 01:20:44;;;;;;;;;;;;;;;16.72;36.75;102308.63;7360304;19;19974;-55
2023/05/29 01:23:28;;;;;;;;;;;;;;;16.69;36.63;102313.97;7358928;19;20030;-55
2023/05/29 01:26:02;;;;;;;;;;;;;;;16.64;36.55;102302.66;7361129;19;19919;-56
2023/05/29 01:28:32;;;;;;;;;;;;;;;16.61;36.48;102308.84;7355099;19;19990;-55
2023/05/29 01:30:59;;;;;;;;;;;;;;;16.57;36.41;102296.63;7362806;19;19934;-55
2023/05/29 01:33:26;;;;;;;;;;;;;;;16.54;36.72;102302.00;7361373;19;19927;-55
2023/05/29 01:35:51;;;;;;;;;;;;;;;16.51;36.25;102299.41;7358407;19;19914;-56
2023/05/29 01:38:16;;;;;;;;;;;;;;;16.48;36.35;102291.59;7355561;19;19932;-55
2023/05/29 01:40:41;;;;;;;;;;;;;;;16.44;36.76;102295.19;7358489;19;19911;-55
2023/05/29 01:43:07;;;;;;;;;;;;;;;16.40;36.99;102301.41;7361031;19;19921;-55
2023/05/29 01:45:33;;;;;;;;;;;;;;;16.37;36.58;102304.09;7357941;19;20340;-55
2023/05/29 01:47:58;;;;;;;;;;;;;;;16.34;36.70;102303.28;7357555;19;19929;-55
2023/05/29 01:50:24;;;;;;;;;;;;;;;16.30;36.79;102303.38;7360288;19;20651;-56
2023/05/29 01:52:50;;;;;;;;;;;;;;;16.27;37.09;102301.69;7354112;19;20629;-55
2023/05/29 01:55:15;;;;;;;;;;;;;;;16.24;37.00;102309.66;7359286;19;19986;-55
2023/05/29 01:57:41;;;;;;;;;;;;;;;16.22;37.47;102311.47;7351443;19;19923;-56
2023/05/29 02:00:09;;;;;;;;;;;;;;;16.19;37.53;102311.50;7352848;19;19982;-55
2023/05/29 02:02:38;;;;;;;;;;;;;;;16.16;37.46;102311.56;7356057;19;19946;-55
2023/05/29 02:05:03;;;;;;;;;;;;;;;16.14;37.44;102313.38;7353309;19;19922;-55
2023/05/29 02:07:30;;;;;;;;;;;;;;;16.10;37.04;102309.06;7358321;19;20009;-55
2023/05/29 02:09:55;;;;;;;;;;;;;;;16.09;37.26;102304.69;7356246;19;20055;-55
2023/05/29 02:12:21;;;;;;;;;;;;;;;16.05;37.28;102301.22;7358215;19;20205;-56
2023/05/29 02:14:46;;;;;;;;;;;;;;;16.04;37.64;102301.28;7352822;19;19919;-55
2023/05/29 02:17:11;;;;;;;;;;;;;;;16.00;37.77;102310.13;7356006;19;19922;-55
2023/05/29 02:19:37;;;;;;;;;;;;;;;15.98;37.61;102301.41;7356890;19;20292;-55
2023/05/29 02:22:02;;;;;;;;;;;;;;;15.96;37.80;102313.72;7348703;19;19944;-55
2023/05/29 02:24:27;;;;;;;;;;;;;;;15.94;37.92;102310.25;7354881;19;19915;-55
2023/05/29 02:26:52;;;;;;;;;;;;;;;15.92;37.50;102306.78;7357238;19;19914;-56
2023/05/29 02:29:18;;;;;;;;;;;;;;;15.88;37.71;102295.44;7347303;19;21345;-55
2023/05/29 02:31:44;;;;;;;;;;;;;;;15.85;37.64;102299.88;7356331;19;19954;-56
2023/05/29 02:34:09;;;;;;;;;;;;;;;15.83;37.71;102300.78;7356672;19;19931;-55
2023/05/29 02:36:37;;;;;;;;;;;;;;;15.45;37.89;102238.25;7351911;19;19918;-55
2023/05/29 02:39:02;;;;;;;;;;;;;;;15.78;38.01;102294.75;7354714;19;19930;-55
2023/05/29 02:41:28;;;;;;;;;;;;;;;15.75;37.78;102297.41;7355708;19;20293;-56
2023/05/29 02:43:53;;;;;;;;;;;;;;;15.73;37.92;102293.97;7352198;19;19923;-55
2023/05/29 02:46:18;;;;;;;;;;;;;;;15.71;38.07;102293.13;7354540;19;19918;-55
2023/05/29 02:48:43;;;;;;;;;;;;;;;15.68;38.47;102290.53;7353651;19;19949;-55
2023/05/29 02:51:09;;;;;;;;;;;;;;;15.66;38.09;102291.47;7352779;19;19919;-55
2023/05/29 02:53:34;;;;;;;;;;;;;;;15.63;38.19;102289.75;7354664;19;20509;-55
2023/05/29 02:56:00;;;;;;;;;;;;;;;15.63;38.70;102297.66;7352913;19;19923;-54
2023/05/29 02:58:27;;;;;;;;;;;;;;;15.59;38.61;102298.56;7349362;19;21354;-56
2023/05/29 03:00:52;;;;;;;;;;;;;;;15.57;38.65;102303.00;7356629;19;20363;-55
2023/05/29 03:03:17;;;;;;;;;;;;;;;15.55;38.99;102302.16;7333885;19;19919;-55
2023/05/29 03:05:43;;;;;;;;;;;;;;;15.53;38.63;102303.97;7352066;19;20337;-54
2023/05/29 03:08:08;;;;;;;;;;;;;;;15.51;38.82;102300.47;7353859;19;19923;-55
2023/05/29 03:10:33;;;;;;;;;;;;;;;15.48;38.89;102301.41;7355231;19;19964;-54
2023/05/29 03:12:58;;;;;;;;;;;;;;;15.47;38.99;102309.34;7355573;19;19918;-56
2023/05/29 03:15:24;;;;;;;;;;;;;;;15.44;39.16;102304.97;7353865;19;20022;-55
2023/05/29 03:17:49;;;;;;;;;;;;;;;15.43;38.66;102307.66;7355955;19;20624;-55
2023/05/29 03:20:15;;;;;;;;;;;;;;;15.41;39.19;102304.16;7349905;19;19925;-55
2023/05/29 03:22:40;;;;;;;;;;;;;;;15.38;39.26;102309.50;7354795;19;19978;-56
2023/05/29 03:25:06;;;;;;;;;;;;;;;15.36;38.87;102308.63;7355125;19;20402;-55
2023/05/29 03:27:31;;;;;;;;;;;;;;;15.34;39.11;102307.78;7353645;19;19919;-55
2023/05/29 03:29:57;;;;;;;;;;;;;;;15.31;39.08;102303.47;7338841;19;19921;-55
2023/05/29 03:32:23;;;;;;;;;;;;;;;15.29;39.18;102308.72;7354558;19;19934;-56
2023/05/29 03:34:48;;;;;;;;;;;;;;;15.27;39.00;102307.03;7353698;19;19914;-55
2023/05/29 03:37:13;;;;;;;;;;;;;;;15.25;38.98;102304.41;7348470;19;19974;-55
2023/05/29 03:39:39;;;;;;;;;;;;;;;15.22;39.04;102301.84;7354409;19;19923;-55
2023/05/29 03:42:04;;;;;;;;;;;;;;;15.21;39.58;102305.38;7356623;19;19927;-55
2023/05/29 03:44:29;;;;;;;;;;;;;;;15.18;39.30;102297.53;7354809;19;19940;-56
2023/05/29 03:46:55;;;;;;;;;;;;;;;15.17;39.34;102306.31;7356844;19;19915;-55
2023/05/29 03:49:20;;;;;;;;;;;;;;;15.15;39.77;102308.09;7356113;19;19923;-55
2023/05/29 03:51:45;;;;;;;;;;;;;;;15.14;39.36;102310.75;7357552;19;19957;-56
2023/05/29 03:54:10;;;;;;;;;;;;;;;14.90;39.82;102277.78;7352397;19;19922;-56
2023/05/29 03:56:36;;;;;;;;;;;;;;;15.09;39.79;102313.44;7352942;19;19929;-55
2023/05/29 03:59:01;;;;;;;;;;;;;;;15.08;40.05;102311.72;7355888;19;19941;-56
2023/05/29 04:01:27;;;;;;;;;;;;;;;15.06;39.91;102313.53;7356650;19;19922;-55
2023/05/29 04:03:52;;;;;;;;;;;;;;;15.05;39.78;102311.75;7355924;19;19935;-56
2023/05/29 04:06:18;;;;;;;;;;;;;;;15.02;39.97;102311.81;7356842;19;19938;-56
2023/05/29 04:08:43;;;;;;;;;;;;;;;15.01;40.30;102315.34;7355817;19;19915;-55
2023/05/29 04:11:08;;;;;;;;;;;;;;;14.99;40.02;102314.50;7353630;19;19981;-56
2023/05/29 04:13:33;;;;;;;;;;;;;;;14.98;40.30;102312.75;7353504;19;20002;-55
2023/05/29 04:15:59;;;;;;;;;;;;;;;14.97;40.30;102318.91;7358645;19;19927;-55
2023/05/29 04:18:25;;;;;;;;;;;;;;;14.96;40.71;102317.19;7356872;19;19935;-54
2023/05/29 04:20:50;;;;;;;;;;;;;;;14.94;40.76;102316.31;7353894;19;19932;-55
2023/05/29 04:23:16;;;;;;;;;;;;;;;14.93;40.51;102317.22;7352217;19;19919;-55
2023/05/29 04:25:41;;;;;;;;;;;;;;;14.92;40.74;102323.38;7355505;19;20470;-55
2023/05/29 04:28:06;;;;;;;;;;;;;;;14.54;40.71;102261.69;7352851;19;19923;-56
2023/05/29 04:30:33;;;;;;;;;;;;;;;14.89;40.90;102316.38;7354518;19;19955;-56
2023/05/29 04:32:59;;;;;;;;;;;;;;;14.89;41.32;102320.78;7353373;19;19915;-56
2023/05/29 04:35:24;;;;;;;;;;;;;;;14.88;41.10;102330.44;7354483;19;19918;-55
2023/05/29 04:37:49;;;;;;;;;;;;;;;14.87;41.40;102319.94;7353834;19;19915;-56
2023/05/29 04:40:17;;;;;;;;;;;;;;;14.87;41.26;102322.56;7354978;19;19919;-55
2023/05/29 04:42:44;;;;;;;;;;;;;;;14.86;41.50;102323.47;7352272;19;19923;-55
2023/05/29 04:45:10;;;;;;;;;;;;;;;14.86;41.46;102326.09;7354398;19;19918;-55
2023/05/29 04:47:42;;;;;;;;;;;;;;;14.85;41.15;102322.59;7355171;19;19933;-56
2023/05/29 04:50:09;;;;;;;;;;;;;;;14.85;41.38;102324.34;7350145;19;20676;-55
2023/05/29 04:52:36;;;;;;;;;;;;;;;14.85;41.47;102329.59;7354285;19;19935;-55
2023/05/29 04:55:02;;;;;;;;;;;;;;;14.84;41.82;102322.59;7350374;19;19926;-55
2023/05/29 04:57:27;;;;;;;;;;;;;;;14.84;41.41;102323.47;7354392;19;19922;-55
2023/05/29 04:59:52;;;;;;;;;;;;;;;14.85;41.70;102334.84;7355694;19;19936;-56
2023/05/29 05:02:18;;;;;;;;;;;;;;;14.85;41.29;102341.03;7350898;19;19952;-55
2023/05/29 05:04:43;;;;;;;;;;;;;;;14.85;41.50;102334.84;7352600;19;20006;-56
2023/05/29 05:07:09;;;;;;;;;;;;;;;14.86;41.47;102341.88;7355047;19;19919;-55
2023/05/29 05:09:34;;;;;;;;;;;;;;;14.86;41.26;102347.16;7355760;19;20024;-55
2023/05/29 05:11:59;;;;;;;;;;;;;;;14.51;41.45;102288.88;7352438;19;19907;-55
2023/05/29 05:14:25;;;;;;;;;;;;;;;14.87;41.64;102349.75;7354788;19;19919;-56
2023/05/29 05:16:50;;;;;;;;;;;;;;;14.88;41.97;102347.97;7352850;19;19946;-56
2023/05/29 05:19:16;;;;;;;;;;;;;;;14.89;41.33;102336.56;7354367;19;19934;-56
2023/05/29 05:21:41;;;;;;;;;;;;;;;14.91;41.47;102346.19;7350911;19;20536;-55
2023/05/29 05:24:06;;;;;;;;;;;;;;;14.92;41.39;102344.41;7352668;19;19952;-56
2023/05/29 05:26:31;;;;;;;;;;;;;;;14.94;41.64;102345.25;7344770;19;19926;-56
2023/05/29 05:28:57;;;;;;;;;;;;;;;14.73;41.62;102309.63;7353831;19;19935;-56
2023/05/29 05:31:22;;;;;;;;;;;;;;;14.96;41.65;102346.13;7348561;19;19918;-56
2023/05/29 05:33:48;;;;;;;;;;;;;;;14.99;41.55;102348.69;7350962;19;19922;-55
2023/05/29 05:36:14;;;;;;;;;;;;;;;15.01;41.98;102350.41;7347570;19;20390;-55
2023/05/29 05:38:39;;;;;;;;;;;;;;;15.06;41.86;102350.34;7354498;19;19927;-55
2023/05/29 05:41:04;;;;;;;;;;;;;;;15.09;41.86;102354.69;7354467;19;20396;-56
2023/05/29 05:43:30;;;;;;;;;;;;;;;15.12;41.42;102358.16;7353626;19;19929;-56
2023/05/29 05:45:55;;;;;;;;;;;;;;;15.15;41.59;102365.97;7349095;19;20587;-55
2023/05/29 05:48:20;;;;;;;;;;;;;;;15.18;41.84;102365.94;7353874;19;19990;-56
2023/05/29 05:50:46;;;;;;;;;;;;;;;15.20;41.54;102364.16;7354489;19;19923;-55
2023/05/29 05:53:11;;;;;;;;;;;;;;;15.24;41.77;102363.22;7359115;19;19919;-56
2023/05/29 05:55:36;;;;;;;;;;;;;;;15.28;41.55;102361.41;7359049;19;20630;-55
2023/05/29 05:58:01;;;;;;;;;;;;;;;15.33;41.81;102370.09;7344422;19;19938;-55
2023/05/29 06:00:27;;;;;;;;;;;;;;;15.36;41.98;102369.16;7357804;19;19982;-56
2023/05/29 06:02:53;;;;;;;;;;;;;;;15.40;41.59;102376.13;7356023;19;19923;-56
2023/05/29 06:05:18;;;;;;;;;;;;;;;15.45;41.80;102379.56;7356293;19;19914;-56
2023/05/29 06:07:43;;;;;;;;;;;;;;;15.48;41.94;102374.25;7359155;19;19922;-56
2023/05/29 06:10:09;;;;;;;;;;;;;;;15.52;41.66;102381.22;7354508;19;20336;-56
2023/05/29 06:12:37;;;;;;;;;;;;;;;15.55;41.82;102378.50;7357918;19;20238;-56
2023/05/29 06:15:04;;;;;;;;;;;;;;;15.58;41.59;102381.09;7351317;19;20563;-55
2023/05/29 06:17:29;;;;;;;;;;;;;;;15.61;41.51;102374.91;7352633;19;19955;-56
2023/05/29 06:19:54;;;;;;;;;;;;;;;15.65;41.94;102379.25;7355111;19;20342;-55
2023/05/29 06:22:20;;;;;;;;;;;;;;;15.68;41.74;102382.72;7356446;19;20297;-55
2023/05/29 06:24:45;;;;;;;;;;;;;;;15.72;42.06;102381.78;7351248;19;19939;-56
2023/05/29 06:27:10;;;;;;;;;;;;;;;15.74;42.14;102390.50;7356499;19;19918;-56
2023/05/29 06:29:36;;;;;;;;;;;;;;;15.76;41.81;102380.84;7355231;19;19918;-56
2023/05/29 06:32:01;;;;;;;;;;;;;;;15.81;42.03;102388.63;7356194;19;19927;-56
2023/05/29 06:34:26;;;;;;;;;;;;;;;15.83;42.22;102385.09;7357758;19;20752;-56
2023/05/29 06:36:51;;;;;;;;;;;;;;;15.88;42.05;102394.69;7351856;19;19965;-55
2023/05/29 06:39:18;;;;;;;;;;;;;;;15.91;42.00;102399.88;7351229;19;19923;-56
2023/05/29 06:41:43;;;;;;;;;;;;;;;15.94;42.17;102405.97;7354399;19;19935;-56
2023/05/29 06:44:08;;;;;;;;;;;;;;;15.99;42.33;102413.81;7356767;19;19960;-56
2023/05/29 06:46:33;;;;;;;;;;;;;;;16.03;42.48;102408.44;7355710;19;19930;-56
2023/05/29 06:48:59;;;;;;;;;;;;;;;16.07;42.29;102411.91;7352368;19;19938;-55
2023/05/29 06:51:24;;;;;;;;;;;;;;;16.10;42.41;102417.09;7331205;19;19931;-56
2023/05/29 06:53:49;;;;;;;;;;;;;;;16.15;42.31;102423.16;7350593;19;19958;-59
2023/05/29 06:56:15;;;;;;;;;;;;;;;16.20;42.37;102420.44;7350087;19;19934;-59
2023/05/29 06:58:40;;;;;;;;;;;;;;;16.24;42.69;102415.09;7351697;19;20639;-59
2023/05/29 07:01:05;;;;;;;;;;;;;;;16.30;42.44;102425.50;7351694;19;19923;-58
2023/05/29 07:03:31;;;;;;;;;;;;;;;16.35;42.54;102426.28;7356440;19;19923;-59
2023/05/29 07:05:56;;;;;;;;;;;;;;;16.43;42.60;102435.84;7358652;19;19930;-59
2023/05/29 07:08:22;;;;;;;;;;;;;;;16.48;42.98;102428.72;7357724;19;19918;-58
2023/05/29 07:10:48;;;;;;;;;;;;;;;16.55;42.66;102432.94;7339688;19;19927;-59
2023/05/29 07:13:17;;;;;;;;;;;;;;;16.60;42.48;102439.00;7356838;19;19911;-59
2023/05/29 07:15:43;;;;;;;;;;;;;;;16.66;42.31;102436.22;7356004;19;20606;-59
2023/05/29 07:18:08;;;;;;;;;;;;;;;16.73;42.18;102437.91;7358881;19;20028;-59
2023/05/29 07:20:33;;;;;;;;;;;;;;;16.79;42.52;102429.84;7354210;19;20770;-59
2023/05/29 07:22:59;;;;;;;;;;;;;;;16.85;42.61;102434.13;7359479;19;19941;-59
2023/05/29 07:25:24;;;;;;;;;;;;;;;16.91;42.31;102443.66;7356476;19;19943;-59
2023/05/29 07:27:49;;;;;;;;;;;;;;;16.97;42.45;102448.81;7358381;19;19923;-59
2023/05/29 07:30:15;;;;;;;;;;;;;;;17.02;42.69;102445.16;7356190;19;19934;-59
2023/05/29 07:32:40;;;;;;;;;;;;;;;17.07;42.82;102447.72;7352530;19;20193;-58
2023/05/29 07:35:06;;;;;;;;;;;;;;;17.12;42.10;102445.84;7343783;19;19914;-59
2023/05/29 07:37:31;;;;;;;;;;;;;;;17.17;42.00;102449.25;7356008;19;19929;-59
2023/05/29 07:39:56;;;;;;;;;;;;;;;17.21;42.64;102445.63;7358443;19;19911;-59
2023/05/29 07:42:23;;;;;;;;;;;;;;;17.26;42.05;102440.25;7350904;19;19922;-59
2023/05/29 07:44:48;;;;;;;;;;;;;;;17.29;41.79;102446.34;7345115;19;20271;-59
2023/05/29 07:47:14;;;;;;;;;;;;;;;17.35;42.63;102447.97;7359632;19;19915;-59
2023/05/29 07:49:39;;;;;;;;;;;;;;;17.39;42.82;102447.00;7358318;19;19915;-59
2023/05/29 07:52:05;;;;;;;;;;;;;;;17.44;42.42;102449.53;7355509;19;19929;-59
2023/05/29 07:54:32;;;;;;;;;;;;;;;17.50;42.42;102446.75;7353223;19;19918;-59
2023/05/29 07:56:57;;;;;;;;;;;;;;;17.55;41.67;102450.16;7356350;19;19941;-59
2023/05/29 07:59:23;;;;;;;;;;;;;;;17.61;42.57;102452.63;7356216;19;19970;-59
2023/05/29 08:01:48;;;;;;;;;;;;;;;17.66;42.41;102448.13;7357361;19;19948;-59
2023/05/29 08:04:13;;;;;;;;;;;;;;;17.72;42.33;102455.88;7353258;19;19938;-59
2023/05/29 08:06:42;;;;;;;;;;;;;;;17.78;41.78;102462.81;7357641;19;20407;-59
2023/05/29 08:09:07;;;;;;;;;;;;;;;17.82;41.95;102461.84;7350732;19;19915;-59
2023/05/29 08:11:32;;;;;;;;;;;;;;;17.87;42.38;102463.47;7353813;19;19922;-58
2023/05/29 08:13:58;;;;;;;;;;;;;;;17.92;42.20;102462.47;7348963;19;20430;-59
2023/05/29 08:16:23;;;;;;;;;;;;;;;17.96;42.33;102470.31;7348131;19;19998;-59
2023/05/29 08:18:48;;;;;;;;;;;;;;;18.01;42.32;102465.75;7353875;19;19927;-59
2023/05/29 08:21:13;;;;;;;;;;;;;;;18.06;41.48;102465.66;7353704;19;19963;-58
2023/05/29 08:23:40;;;;;;;;;;;;;;;18.11;41.61;102463.75;7354390;19;19944;-59
2023/05/29 08:26:05;;;;;;;;;;;;;;;18.15;42.13;102471.56;7353257;19;20855;-58
2023/05/29 08:28:30;;;;;;;;;;;;;;;18.17;42.18;102474.16;7352274;19;19990;-59
2023/05/29 08:30:55;;;;;;;;;;;;;;;18.21;42.30;102474.97;7353839;19;20336;-59
2023/05/29 08:33:21;;;;;;;;;;;;;;;17.92;42.37;102420.19;7355563;19;19978;-59
2023/05/29 08:35:46;;;;;;;;;;;;;;;18.29;41.98;102480.91;7354781;19;19926;-59
2023/05/29 08:38:11;;;;;;;;;;;;;;;18.33;41.78;102480.78;7353055;19;19918;-60
2023/05/29 08:40:37;;;;;;;;;;;;;;;18.39;42.49;102480.59;7353684;19;19935;-59
2023/05/29 08:43:05;;;;;;;;;;;;;;;18.44;41.81;102480.47;7355157;19;19926;-59
2023/05/29 08:45:33;;;;;;;;;;;;;;;18.49;41.37;102473.28;7349953;19;19918;-60
2023/05/29 08:48:00;;;;;;;;;;;;;;;18.54;41.78;102475.81;7354006;19;19937;-59
2023/05/29 08:50:25;;;;;;;;;;;;;;;18.59;41.69;102481.84;7352914;19;19927;-59
2023/05/29 08:52:51;;;;;;;;;;;;;;;18.63;41.65;102488.78;7353013;19;20018;-59
2023/05/29 08:55:16;;;;;;;;;;;;;;;18.68;41.73;102484.28;7354553;19;20455;-59
2023/05/29 08:57:43;;;;;;;;;;;;;;;18.72;42.07;102491.22;7353172;19;19994;-59
2023/05/29 09:00:12;;;;;;;;;;;;;;;18.77;42.19;102485.81;7354494;19;20749;-59
2023/05/29 09:02:41;;;;;;;;;;;;;;;18.82;42.03;102478.59;7354845;19;19922;-59
2023/05/29 09:05:06;;;;;;;;;;;;;;;18.87;42.13;102480.19;7352290;19;19938;-58
2023/05/29 09:07:32;;;;;;;;;;;;;;;18.92;42.08;102483.56;7353254;19;19942;-59
2023/05/29 09:09:58;;;;;;;;;;;;;;;18.99;42.06;102480.75;7344394;19;19939;-59
2023/05/29 09:12:24;;;;;;;;;;;;;;;19.05;41.38;102486.72;7355433;19;19936;-59
2023/05/29 09:14:50;;;;;;;;;;;;;;;19.12;41.71;102487.41;7356058;19;19919;-60
2023/05/29 09:17:16;;;;;;;;;;;;;;;19.19;40.80;102488.97;7354064;19;19934;-60
2023/05/29 09:19:42;;;;;;;;;;;;;;;19.24;40.98;102484.38;7351254;19;19959;-59
2023/05/29 09:22:09;;;;;;;;;;;;;;;19.33;41.50;102485.91;7348077;19;19926;-59
2023/05/29 09:24:38;;;;;;;;;;;;;;;19.42;41.45;102488.28;7350305;19;19914;-59
2023/05/29 09:27:04;;;;;;;;;;;;;;;19.57;40.94;102487.78;7355650;19;20443;-59
2023/05/29 09:29:33;;;;;;;;;;;;;;;19.75;41.45;102494.28;7356873;19;19914;-59
2023/05/29 09:31:58;;;;;;;;;;;;;;;19.95;41.29;102491.84;7359779;19;20337;-60
2023/05/29 09:34:26;;;;;;;;;;;;;;;20.14;41.32;102488.59;7358070;19;19938;-59
2023/05/29 09:36:51;;;;;;;;;;;;;;;20.35;41.29;102490.50;7360033;19;20381;-60
2023/05/29 09:39:17;;;;;;;;;;;;;;;20.56;40.92;102488.03;7356456;19;19919;-59
2023/05/29 09:41:46;;;;;;;;;;;;;;;20.82;40.93;102489.72;7359351;19;20320;-59
2023/05/29 09:44:15;;;;;;;;;;;;;;;21.07;40.93;102500.28;7356761;19;20964;-59
2023/05/29 09:46:41;;;;;;;;;;;;;;;21.32;40.79;102487.81;7360422;19;21185;-60
2023/05/29 09:49:11;;;;;;;;;;;;;;;21.60;40.46;102489.41;7359339;19;19927;-59
2023/05/29 09:51:37;;;;;;;;;;;;;;;21.84;40.32;102485.69;7341675;19;20934;-59
2023/05/29 09:54:15;;;;;;;;;;;;;;;22.11;40.19;102506.81;7356046;19;19954;-60
2023/05/29 09:56:42;;;;;;;;;;;;;;;22.37;40.04;102503.03;7356079;19;19923;-59
2023/05/29 09:59:10;;;;;;;;;;;;;;;22.61;40.08;102501.06;7353665;19;19974;-59
2023/05/29 10:01:35;;;;;;;;;;;;;;;22.88;40.21;102498.97;7352667;19;20347;-59
2023/05/29 10:04:02;;;;;;;;;;;;;;;23.14;39.82;102493.31;7355378;19;19919;-59
2023/05/29 10:06:29;;;;;;;;;;;;;;;23.38;39.52;102488.63;7359873;19;20800;-60
2023/05/29 10:08:55;;;;;;;;;;;;;;;23.64;39.19;102494.53;7357649;19;19926;-59
2023/05/29 10:11:24;;;;;;;;;;;;;;;23.90;39.41;102494.09;7358292;19;19923;-59
2023/05/29 10:13:51;;;;;;;;;;;;;;;24.18;39.08;102490.00;7357733;19;19922;-60
2023/05/29 10:16:19;;;;;;;;;;;;;;;24.41;38.72;102492.38;7357410;19;19939;-57
2023/05/29 10:18:46;;;;;;;;;;;;;;;24.47;38.62;102461.81;7362067;19;19926;-59
2023/05/29 10:21:12;;;;;;;;;;;;;;;24.95;38.42;102489.50;7356468;19;19919;-59
2023/05/29 10:23:37;;;;;;;;;;;;;;;25.28;38.41;102494.81;7360784;19;20029;-60
2023/05/29 10:26:10;;;;;;;;;;;;;;;25.64;39.08;102494.50;7358879;19;19919;-61
2023/05/29 10:28:39;;;;;;;;;;;;;;;26.01;38.40;102495.94;7360565;19;19915;-59
2023/05/29 10:31:16;;;;;;;;;;;;;;;26.28;37.83;102493.41;7358535;19;19915;-60
2023/05/29 10:33:52;;;;;;;;;;;;;;;26.57;37.55;102499.72;7358785;19;19923;-60
2023/05/29 10:36:19;;;;;;;;;;;;;;;26.85;36.98;102497.97;7353950;19;19918;-60
2023/05/29 10:38:45;;;;;;;;;;;;;;;27.13;36.65;102489.09;7360459;19;19942;-59
2023/05/29 10:41:26;;;;;;;;;;;;;;;27.40;36.23;102494.47;7359608;19;19930;-60
2023/05/29 10:43:53;;;;;;;;;;;;;;;27.73;36.22;102490.53;7357383;19;19922;-60
2023/05/29 10:46:18;;;;;;;;;;;;;;;28.04;36.94;102490.19;7358012;19;19931;-60
2023/05/29 10:48:43;;;;;;;;;;;;;;;28.29;36.38;102499.25;7358963;19;20039;-60
2023/05/29 10:51:23;;;;;;;;;;;;;;;28.52;34.93;102495.84;7358575;19;19938;-60
2023/05/29 10:53:50;;;;;;;;;;;;;;;28.60;34.73;102496.16;7358775;19;19922;-59
2023/05/29 10:56:19;;;;;;;;;;;;;;;28.39;34.11;102452.00;7359089;19;19943;-59
2023/05/29 10:58:50;;;;;;;;;;;;;;;28.83;34.56;102493.66;7357484;19;19957;-59
2023/05/29 11:01:16;;;;;;;;;;;;;;;29.01;34.56;102497.75;7355801;19;19914;-60
2023/05/29 11:03:41;;;;;;;;;;;;;;;29.17;34.18;102502.88;7359257;19;19953;-60
2023/05/29 11:06:16;;;;;;;;;;;;;;;29.36;34.21;102492.47;7358948;19;19933;-60
2023/05/29 11:08:46;;;;;;;;;;;;;;;29.61;33.13;102496.94;7360214;19;20489;-60
2023/05/29 11:11:15;;;;;;;;;;;;;;;29.88;33.08;102498.50;7355996;19;19982;-59
2023/05/29 11:13:44;;;;;;;;;;;;;;;30.16;32.97;102502.63;7355216;19;20700;-59
2023/05/29 11:16:18;;;;;;;;;;;;;;;30.48;33.41;102487.53;7357198;19;19946;-58
2023/05/29 11:18:48;;;;;;;;;;;;;;;30.76;33.14;102501.53;7357596;19;19922;-59
2023/05/29 11:21:28;;;;;;;;;;;;;;;31.04;32.99;102497.47;7357116;19;19930;-60
2023/05/29 11:23:54;;;;;;;;;;;;;;;31.31;31.99;102493.50;7359066;19;19923;-60
2023/05/29 11:26:20;;;;;;;;;;;;;;;31.59;31.72;102494.78;7358910;19;20677;-60
2023/05/29 11:28:46;;;;;;;;;;;;;;;31.90;31.87;102493.06;7355980;19;20392;-60
2023/05/29 11:31:12;;;;;;;;;;;;;;;32.24;31.77;102491.03;7355663;19;19922;-59
2023/05/29 11:33:41;;;;;;;;;;;;;;;32.57;31.05;102498.06;7360820;19;19942;-59
2023/05/29 11:36:08;;;;;;;;;;;;;;;32.93;31.61;102499.38;7351378;19;19982;-59
2023/05/29 11:38:33;;;;;;;;;;;;;;;33.27;30.53;102502.59;7359522;19;20316;-59
2023/05/29 11:41:00;;;;;;;;;;;;;;;33.64;31.84;102504.66;7349464;19;19935;-60
2023/05/29 11:43:26;;;;;;;;;;;;;;;33.93;30.75;102492.97;7359520;19;19935;-59
2023/05/29 11:45:51;;;;;;;;;;;;;;;34.16;30.39;102504.34;7355052;19;19926;-60
2023/05/29 11:48:16;;;;;;;;;;;;;;;34.40;29.95;102501.16;7358059;19;19939;-60
2023/05/29 11:50:43;;;;;;;;;;;;;;;34.61;29.77;102504.53;7350262;19;19935;-59
2023/05/29 11:53:08;;;;;;;;;;;;;;;34.85;29.10;102509.44;7357976;19;20033;-60
2023/05/29 11:55:34;;;;;;;;;;;;;;;35.11;29.19;102506.88;7354182;19;19914;-60
2023/05/29 11:58:00;;;;;;;;;;;;;;;35.40;28.54;102503.97;7358372;19;19954;-60
2023/05/29 12:00:30;;;;;;;;;;;;;;;35.72;28.82;102505.31;7351454;19;19925;-59
2023/05/29 12:02:57;;;;;;;;;;;;;;;36.01;28.15;102505.09;7357282;19;19930;-59
2023/05/29 12:05:23;;;;;;;;;;;;;;;36.30;28.76;102516.53;7356286;19;19919;-60
2023/05/29 12:07:52;;;;;;;;;;;;;;;36.54;28.04;102523.97;7355939;19;20323;-60
2023/05/29 12:10:19;;;;;;;;;;;;;;;36.75;27.24;102526.34;7353747;19;19946;-60
2023/05/29 12:12:52;;;;;;;;;;;;;;;36.89;26.88;102516.66;7357599;19;20367;-59
2023/05/29 12:15:18;;;;;;;;;;;;;;;37.07;27.67;102519.31;7357779;19;19915;-60
2023/05/29 12:17:44;;;;;;;;;;;;;;;37.19;27.55;102528.88;7353341;19;22807;-59
2023/05/29 12:20:11;;;;;;;;;;;;;;;37.25;27.05;102511.88;7349870;19;20458;-59
2023/05/29 12:22:37;;;;;;;;;;;;;;;37.32;25.98;102518.38;7351459;19;19935;-58
2023/05/29 12:25:06;;;;;;;;;;;;;;;37.44;26.24;102528.97;7350918;19;19930;-60
2023/05/29 12:27:31;;;;;;;;;;;;;;;37.60;26.37;102521.66;7356277;19;19930;-60
2023/05/29 12:30:03;;;;;;;;;;;;;;;37.77;26.50;102517.09;7353237;19;19914;-60